Airfield :
LOGIN :

Register | Disclaimer

   EN    FR    IT 

 










Legend :    VFR   Marginal VFR   IFR   Intensive IFR   Very Intensive IFR
Visi :
Ceiling :
>= 8 km
>= 3000ft
5 to 8 km
1000 to 3000 ft
1500m to 5 km
500 to 1000 ft
800 to 1500m
200 to 500 ft
< 800m
< 200 ft
Symbols :   Thunderstorms  Fog  Heavy snow  Heavy precipitations  Wind > 20 kt
SIGMETs :     Misc.  Thunderstorms  Icing  Turbulence  Mountain Waves  Volcanic Ashes






- Airport Elevation : 353 ft
- IATA code : ZAG


LDZA - Zagreb Pleso

CURRENT METAR :
  • 210300Z 19004KT 180V260 CAVOK M02/M04 Q1021 NOSIG

EXPIRED METARs :
  • 210230Z VRB01KT CAVOK M02/M04 Q1021 NOSIG
  • 210200Z VRB01KT CAVOK M01/M04 Q1022 NOSIG
  • 210130Z 17001KT CAVOK M01/M04 Q1022 NOSIG
  • 210100Z VRB01KT CAVOK M00/M04 Q1022 NOSIG

TAF AMD TAF LDZA
Valid from the 21 at 01:00 until the 22 at 00:00 UTC


210200Z 2101/2200 VRB02KT CAVOK TX13/2113Z TN00/2105Z
BECMG 2111/2113 03008KT
BECMG 2117/2119 VRB02KT
ATIS : +385 1 6-259-214



MET'MAP, your aeronautical weather chart ! - Copyright ORBIFLY December 2007 - Disclaimer

ORBIFLY MET'MAP TEAM :

Programming & Development : Alexandra Zaïnal
Concept & original design : Baudouin d'Aumeries
Assistance for programming : Marc-Olivier Méhu
Technical & hardware support : Manuel Goepfert

Contact : metmap@orbifly.com




SOURCES & CREDITS :

   NOAA